sensor_id;sensor_type;location;lat;lon;timestamp;P1;durP1;ratioP1;P2;durP2;ratioP2
4001;SDS011;2015;48.670;9.060;2023-04-29T00:01:54;5.57;;;5.27;;
4001;SDS011;2015;48.670;9.060;2023-04-29T00:04:29;5.23;;;4.93;;
4001;SDS011;2015;48.670;9.060;2023-04-29T00:07:01;11.77;;;10.53;;
4001;SDS011;2015;48.670;9.060;2023-04-29T00:09:33;8.87;;;7.97;;
4001;SDS011;2015;48.670;9.060;2023-04-29T00:12:04;8.50;;;6.00;;
4001;SDS011;2015;48.670;9.060;2023-04-29T00:14:36;9.13;;;8.43;;
4001;SDS011;2015;48.670;9.060;2023-04-29T00:17:08;12.30;;;9.73;;
4001;SDS011;2015;48.670;9.060;2023-04-29T00:19:40;10.57;;;9.57;;
4001;SDS011;2015;48.670;9.060;2023-04-29T00:22:12;5.60;;;5.23;;
4001;SDS011;2015;48.670;9.060;2023-04-29T00:24:44;5.67;;;5.27;;
4001;SDS011;2015;48.670;9.060;2023-04-29T00:27:16;6.10;;;5.70;;
4001;SDS011;2015;48.670;9.060;2023-04-29T00:29:48;4.80;;;4.50;;
4001;SDS011;2015;48.670;9.060;2023-04-29T00:32:20;5.83;;;5.33;;
4001;SDS011;2015;48.670;9.060;2023-04-29T00:34:53;5.03;;;4.63;;
4001;SDS011;2015;48.670;9.060;2023-04-29T00:37:24;6.47;;;4.90;;
4001;SDS011;2015;48.670;9.060;2023-04-29T00:39:56;5.70;;;5.20;;
4001;SDS011;2015;48.670;9.060;2023-04-29T00:42:29;4.70;;;4.40;;
4001;SDS011;2015;48.670;9.060;2023-04-29T00:45:03;5.30;;;4.90;;
4001;SDS011;2015;48.670;9.060;2023-04-29T00:47:38;4.80;;;4.50;;
4001;SDS011;2015;48.670;9.060;2023-04-29T00:50:10;6.03;;;5.40;;
4001;SDS011;2015;48.670;9.060;2023-04-29T00:52:42;5.90;;;5.40;;
4001;SDS011;2015;48.670;9.060;2023-04-29T00:55:14;6.27;;;5.00;;
4001;SDS011;2015;48.670;9.060;2023-04-29T00:57:46;5.80;;;5.40;;
4001;SDS011;2015;48.670;9.060;2023-04-29T01:00:19;5.20;;;4.80;;
4001;SDS011;2015;48.670;9.060;2023-04-29T01:02:51;10.63;;;9.20;;
4001;SDS011;2015;48.670;9.060;2023-04-29T01:05:25;4.90;;;4.50;;
4001;SDS011;2015;48.670;9.060;2023-04-29T01:16:22;4.33;;;4.03;;
4001;SDS011;2015;48.670;9.060;2023-04-29T01:19:01;4.57;;;4.30;;
4001;SDS011;2015;48.670;9.060;2023-04-29T01:21:47;5.47;;;4.97;;
4001;SDS011;2015;48.670;9.060;2023-04-29T01:24:19;8.70;;;4.70;;
4001;SDS011;2015;48.670;9.060;2023-04-29T01:26:55;5.13;;;4.83;;
4001;SDS011;2015;48.670;9.060;2023-04-29T01:35:21;4.30;;;4.00;;
4001;SDS011;2015;48.670;9.060;2023-04-29T01:38:32;7.00;;;4.83;;
4001;SDS011;2015;48.670;9.060;2023-04-29T01:43:58;5.72;;;5.20;;
4001;SDS011;2015;48.670;9.060;2023-04-29T01:46:32;7.30;;;5.20;;
4001;SDS011;2015;48.670;9.060;2023-04-29T01:49:06;4.77;;;4.30;;
4001;SDS011;2015;48.670;9.060;2023-04-29T01:51:37;4.17;;;3.87;;
4001;SDS011;2015;48.670;9.060;2023-04-29T01:54:09;4.60;;;4.33;;
4001;SDS011;2015;48.670;9.060;2023-04-29T01:56:41;4.70;;;4.40;;
4001;SDS011;2015;48.670;9.060;2023-04-29T01:59:14;4.73;;;4.40;;
4001;SDS011;2015;48.670;9.060;2023-04-29T02:01:46;4.60;;;4.30;;
4001;SDS011;2015;48.670;9.060;2023-04-29T02:04:18;4.90;;;4.60;;
4001;SDS011;2015;48.670;9.060;2023-04-29T02:06:50;7.97;;;4.40;;
4001;SDS011;2015;48.670;9.060;2023-04-29T02:09:24;5.23;;;4.93;;
4001;SDS011;2015;48.670;9.060;2023-04-29T02:11:56;5.63;;;4.63;;
4001;SDS011;2015;48.670;9.060;2023-04-29T02:14:28;5.57;;;5.18;;
4001;SDS011;2015;48.670;9.060;2023-04-29T02:17:00;5.87;;;5.30;;
4001;SDS011;2015;48.670;9.060;2023-04-29T02:19:32;5.13;;;4.70;;
4001;SDS011;2015;48.670;9.060;2023-04-29T02:22:04;6.10;;;5.60;;
4001;SDS011;2015;48.670;9.060;2023-04-29T02:24:36;6.40;;;5.90;;
4001;SDS011;2015;48.670;9.060;2023-04-29T02:27:08;5.30;;;4.97;;
4001;SDS011;2015;48.670;9.060;2023-04-29T02:29:40;6.43;;;5.87;;
4001;SDS011;2015;48.670;9.060;2023-04-29T02:32:11;6.53;;;5.60;;
4001;SDS011;2015;48.670;9.060;2023-04-29T02:34:45;5.73;;;5.20;;
4001;SDS011;2015;48.670;9.060;2023-04-29T02:37:17;5.97;;;5.50;;
4001;SDS011;2015;48.670;9.060;2023-04-29T02:39:49;6.32;;;5.30;;
4001;SDS011;2015;48.670;9.060;2023-04-29T02:42:21;6.07;;;5.30;;
4001;SDS011;2015;48.670;9.060;2023-04-29T02:44:53;5.93;;;5.53;;
4001;SDS011;2015;48.670;9.060;2023-04-29T02:47:25;4.97;;;4.57;;
4001;SDS011;2015;48.670;9.060;2023-04-29T02:49:57;4.87;;;4.53;;
4001;SDS011;2015;48.670;9.060;2023-04-29T02:52:29;6.70;;;5.20;;
4001;SDS011;2015;48.670;9.060;2023-04-29T02:55:00;5.57;;;5.00;;
4001;SDS011;2015;48.670;9.060;2023-04-29T02:57:35;6.50;;;5.87;;
4001;SDS011;2015;48.670;9.060;2023-04-29T03:00:07;5.70;;;5.20;;
4001;SDS011;2015;48.670;9.060;2023-04-29T03:02:39;5.03;;;4.73;;
4001;SDS011;2015;48.670;9.060;2023-04-29T03:05:11;7.50;;;5.53;;
4001;SDS011;2015;48.670;9.060;2023-04-29T03:07:43;8.50;;;6.27;;
4001;SDS011;2015;48.670;9.060;2023-04-29T03:10:15;7.55;;;6.85;;
4001;SDS011;2015;48.670;9.060;2023-04-29T03:12:48;5.70;;;5.30;;
4001;SDS011;2015;48.670;9.060;2023-04-29T03:15:20;7.03;;;6.47;;
4001;SDS011;2015;48.670;9.060;2023-04-29T03:17:51;6.60;;;6.10;;
4001;SDS011;2015;48.670;9.060;2023-04-29T03:20:23;6.60;;;6.10;;
4001;SDS011;2015;48.670;9.060;2023-04-29T03:22:55;6.07;;;5.67;;
4001;SDS011;2015;48.670;9.060;2023-04-29T03:25:27;5.40;;;4.97;;
4001;SDS011;2015;48.670;9.060;2023-04-29T03:27:59;6.53;;;5.97;;
4001;SDS011;2015;48.670;9.060;2023-04-29T03:30:31;6.10;;;5.50;;
4001;SDS011;2015;48.670;9.060;2023-04-29T03:33:03;5.43;;;4.93;;
4001;SDS011;2015;48.670;9.060;2023-04-29T03:35:34;5.50;;;5.20;;
4001;SDS011;2015;48.670;9.060;2023-04-29T03:38:06;6.20;;;5.90;;
4001;SDS011;2015;48.670;9.060;2023-04-29T03:40:38;5.57;;;5.00;;
4001;SDS011;2015;48.670;9.060;2023-04-29T03:43:10;4.03;;;3.83;;
4001;SDS011;2015;48.670;9.060;2023-04-29T03:45:44;5.70;;;5.30;;
4001;SDS011;2015;48.670;9.060;2023-04-29T03:48:16;6.07;;;5.47;;
4001;SDS011;2015;48.670;9.060;2023-04-29T03:50:47;4.97;;;4.57;;
4001;SDS011;2015;48.670;9.060;2023-04-29T03:53:19;5.83;;;5.30;;
4001;SDS011;2015;48.670;9.060;2023-04-29T03:55:52;5.90;;;5.50;;
4001;SDS011;2015;48.670;9.060;2023-04-29T03:58:23;5.80;;;5.50;;
4001;SDS011;2015;48.670;9.060;2023-04-29T04:00:55;6.60;;;6.10;;
4001;SDS011;2015;48.670;9.060;2023-04-29T04:03:27;5.33;;;4.87;;
4001;SDS011;2015;48.670;9.060;2023-04-29T04:05:59;5.03;;;4.67;;
4001;SDS011;2015;48.670;9.060;2023-04-29T04:08:31;5.78;;;5.20;;
4001;SDS011;2015;48.670;9.060;2023-04-29T04:11:03;6.17;;;5.67;;
4001;SDS011;2015;48.670;9.060;2023-04-29T04:13:35;5.53;;;5.13;;
4001;SDS011;2015;48.670;9.060;2023-04-29T04:16:08;6.33;;;5.70;;
4001;SDS011;2015;48.670;9.060;2023-04-29T04:18:41;6.00;;;5.50;;
4001;SDS011;2015;48.670;9.060;2023-04-29T04:21:13;6.00;;;5.50;;
4001;SDS011;2015;48.670;9.060;2023-04-29T04:23:44;6.00;;;5.60;;
4001;SDS011;2015;48.670;9.060;2023-04-29T04:26:16;7.10;;;6.40;;
4001;SDS011;2015;48.670;9.060;2023-04-29T04:28:48;8.57;;;7.00;;
4001;SDS011;2015;48.670;9.060;2023-04-29T04:31:20;6.30;;;5.90;;
4001;SDS011;2015;48.670;9.060;2023-04-29T04:33:52;7.20;;;6.50;;
4001;SDS011;2015;48.670;9.060;2023-04-29T04:36:24;6.63;;;5.80;;
4001;SDS011;2015;48.670;9.060;2023-04-29T04:38:56;6.17;;;5.70;;
4001;SDS011;2015;48.670;9.060;2023-04-29T04:41:27;5.93;;;5.43;;
4001;SDS011;2015;48.670;9.060;2023-04-29T04:44:01;6.27;;;5.67;;
4001;SDS011;2015;48.670;9.060;2023-04-29T04:46:33;5.73;;;5.30;;
4001;SDS011;2015;48.670;9.060;2023-04-29T04:49:05;6.57;;;6.03;;
4001;SDS011;2015;48.670;9.060;2023-04-29T04:51:37;6.47;;;6.07;;
4001;SDS011;2015;48.670;9.060;2023-04-29T04:54:09;6.10;;;5.50;;
4001;SDS011;2015;48.670;9.060;2023-04-29T04:56:42;5.50;;;5.10;;
4001;SDS011;2015;48.670;9.060;2023-04-29T04:59:14;6.43;;;5.97;;
4001;SDS011;2015;48.670;9.060;2023-04-29T05:01:45;6.63;;;6.13;;
4001;SDS011;2015;48.670;9.060;2023-04-29T05:04:17;7.00;;;6.30;;
4001;SDS011;2015;48.670;9.060;2023-04-29T05:06:49;8.25;;;7.45;;
4001;SDS011;2015;48.670;9.060;2023-04-29T05:09:21;7.93;;;7.33;;
4001;SDS011;2015;48.670;9.060;2023-04-29T05:11:53;6.67;;;6.17;;
4001;SDS011;2015;48.670;9.060;2023-04-29T05:14:26;7.43;;;6.70;;
4001;SDS011;2015;48.670;9.060;2023-04-29T05:16:58;7.17;;;6.73;;
4001;SDS011;2015;48.670;9.060;2023-04-29T05:19:30;9.30;;;6.57;;
4001;SDS011;2015;48.670;9.060;2023-04-29T05:22:02;7.40;;;6.80;;
4001;SDS011;2015;48.670;9.060;2023-04-29T05:24:34;6.10;;;5.50;;
4001;SDS011;2015;48.670;9.060;2023-04-29T05:27:05;6.70;;;6.00;;
4001;SDS011;2015;48.670;9.060;2023-04-29T05:29:37;7.03;;;6.37;;
4001;SDS011;2015;48.670;9.060;2023-04-29T05:32:09;7.20;;;6.50;;
4001;SDS011;2015;48.670;9.060;2023-04-29T05:34:41;7.13;;;6.47;;
4001;SDS011;2015;48.670;9.060;2023-04-29T05:37:14;7.10;;;6.40;;
4001;SDS011;2015;48.670;9.060;2023-04-29T05:46:19;7.53;;;6.93;;
4001;SDS011;2015;48.670;9.060;2023-04-29T05:48:53;7.43;;;6.83;;
4001;SDS011;2015;48.670;9.060;2023-04-29T05:51:25;7.50;;;6.90;;
4001;SDS011;2015;48.670;9.060;2023-04-29T05:53:58;7.53;;;6.93;;
4001;SDS011;2015;48.670;9.060;2023-04-29T05:56:30;7.17;;;6.57;;
4001;SDS011;2015;48.670;9.060;2023-04-29T05:59:02;7.50;;;6.80;;
4001;SDS011;2015;48.670;9.060;2023-04-29T06:01:33;7.53;;;6.93;;
4001;SDS011;2015;48.670;9.060;2023-04-29T06:04:05;7.03;;;6.53;;
4001;SDS011;2015;48.670;9.060;2023-04-29T06:06:38;8.40;;;7.57;;
4001;SDS011;2015;48.670;9.060;2023-04-29T06:09:10;7.07;;;6.57;;
4001;SDS011;2015;48.670;9.060;2023-04-29T06:11:57;7.30;;;6.80;;
4001;SDS011;2015;48.670;9.060;2023-04-29T06:14:29;6.73;;;6.23;;
4001;SDS011;2015;48.670;9.060;2023-04-29T06:17:01;7.90;;;7.37;;
4001;SDS011;2015;48.670;9.060;2023-04-29T06:19:33;7.40;;;6.90;;
4001;SDS011;2015;48.670;9.060;2023-04-29T06:22:05;8.07;;;7.47;;
4001;SDS011;2015;48.670;9.060;2023-04-29T06:24:37;7.40;;;6.90;;
4001;SDS011;2015;48.670;9.060;2023-04-29T06:27:09;8.23;;;7.63;;
4001;SDS011;2015;48.670;9.060;2023-04-29T06:29:41;7.30;;;6.90;;
4001;SDS011;2015;48.670;9.060;2023-04-29T06:32:13;9.23;;;7.60;;
4001;SDS011;2015;48.670;9.060;2023-04-29T06:34:44;6.60;;;6.00;;
4001;SDS011;2015;48.670;9.060;2023-04-29T06:37:16;5.43;;;5.03;;
4001;SDS011;2015;48.670;9.060;2023-04-29T06:39:48;5.10;;;4.80;;
4001;SDS011;2015;48.670;9.060;2023-04-29T06:42:20;5.73;;;4.67;;
4001;SDS011;2015;48.670;9.060;2023-04-29T06:44:52;4.27;;;4.07;;
4001;SDS011;2015;48.670;9.060;2023-04-29T06:47:24;3.87;;;3.67;;
4001;SDS011;2015;48.670;9.060;2023-04-29T06:49:56;3.70;;;3.50;;
4001;SDS011;2015;48.670;9.060;2023-04-29T06:52:27;4.30;;;3.90;;
4001;SDS011;2015;48.670;9.060;2023-04-29T06:55:00;3.90;;;3.70;;
4001;SDS011;2015;48.670;9.060;2023-04-29T06:57:33;4.67;;;4.30;;
4001;SDS011;2015;48.670;9.060;2023-04-29T07:00:05;4.83;;;4.53;;
4001;SDS011;2015;48.670;9.060;2023-04-29T07:02:37;5.43;;;5.10;;
4001;SDS011;2015;48.670;9.060;2023-04-29T07:05:09;5.67;;;5.27;;
4001;SDS011;2015;48.670;9.060;2023-04-29T07:07:41;5.60;;;5.20;;
4001;SDS011;2015;48.670;9.060;2023-04-29T07:10:13;4.67;;;4.27;;
4001;SDS011;2015;48.670;9.060;2023-04-29T07:12:45;5.37;;;5.07;;
4001;SDS011;2015;48.670;9.060;2023-04-29T07:15:17;4.80;;;4.60;;
4001;SDS011;2015;48.670;9.060;2023-04-29T07:17:49;4.93;;;4.63;;
4001;SDS011;2015;48.670;9.060;2023-04-29T07:20:21;4.83;;;4.43;;
4001;SDS011;2015;48.670;9.060;2023-04-29T07:22:53;4.33;;;4.03;;
4001;SDS011;2015;48.670;9.060;2023-04-29T07:25:25;4.10;;;3.80;;
4001;SDS011;2015;48.670;9.060;2023-04-29T07:27:59;5.90;;;5.40;;
4001;SDS011;2015;48.670;9.060;2023-04-29T07:30:31;4.80;;;4.40;;
4001;SDS011;2015;48.670;9.060;2023-04-29T07:33:03;4.63;;;4.30;;
4001;SDS011;2015;48.670;9.060;2023-04-29T07:35:35;5.10;;;4.73;;
4001;SDS011;2015;48.670;9.060;2023-04-29T07:38:06;4.50;;;4.30;;
4001;SDS011;2015;48.670;9.060;2023-04-29T07:40:39;3.90;;;3.60;;
4001;SDS011;2015;48.670;9.060;2023-04-29T07:43:12;4.00;;;3.80;;
4001;SDS011;2015;48.670;9.060;2023-04-29T07:45:44;3.60;;;3.40;;
4001;SDS011;2015;48.670;9.060;2023-04-29T07:48:16;4.57;;;4.37;;
4001;SDS011;2015;48.670;9.060;2023-04-29T07:50:47;3.97;;;3.77;;
4001;SDS011;2015;48.670;9.060;2023-04-29T07:53:19;4.30;;;4.00;;
4001;SDS011;2015;48.670;9.060;2023-04-29T07:55:51;3.30;;;3.10;;
4001;SDS011;2015;48.670;9.060;2023-04-29T07:58:23;3.20;;;2.97;;
4001;SDS011;2015;48.670;9.060;2023-04-29T08:00:55;3.80;;;3.50;;
4001;SDS011;2015;48.670;9.060;2023-04-29T08:03:27;3.53;;;3.33;;
4001;SDS011;2015;48.670;9.060;2023-04-29T08:06:00;3.23;;;3.13;;
4001;SDS011;2015;48.670;9.060;2023-04-29T08:08:35;3.30;;;3.10;;
4001;SDS011;2015;48.670;9.060;2023-04-29T08:11:06;3.10;;;2.90;;
4001;SDS011;2015;48.670;9.060;2023-04-29T08:13:38;2.90;;;2.70;;
4001;SDS011;2015;48.670;9.060;2023-04-29T08:16:10;3.87;;;3.57;;
4001;SDS011;2015;48.670;9.060;2023-04-29T08:18:43;3.20;;;3.00;;
4001;SDS011;2015;48.670;9.060;2023-04-29T08:21:15;3.10;;;2.90;;
4001;SDS011;2015;48.670;9.060;2023-04-29T08:23:47;3.30;;;3.10;;
4001;SDS011;2015;48.670;9.060;2023-04-29T08:26:19;3.37;;;3.07;;
4001;SDS011;2015;48.670;9.060;2023-04-29T08:28:53;3.50;;;3.30;;
4001;SDS011;2015;48.670;9.060;2023-04-29T08:31:25;3.83;;;3.63;;
4001;SDS011;2015;48.670;9.060;2023-04-29T08:33:57;3.37;;;3.17;;
4001;SDS011;2015;48.670;9.060;2023-04-29T08:36:29;2.83;;;2.63;;
4001;SDS011;2015;48.670;9.060;2023-04-29T08:39:01;4.20;;;3.90;;
4001;SDS011;2015;48.670;9.060;2023-04-29T08:41:33;2.67;;;2.57;;
4001;SDS011;2015;48.670;9.060;2023-04-29T08:44:06;3.63;;;2.50;;
4001;SDS011;2015;48.670;9.060;2023-04-29T08:46:38;2.57;;;2.40;;
4001;SDS011;2015;48.670;9.060;2023-04-29T08:49:10;2.47;;;2.37;;
4001;SDS011;2015;48.670;9.060;2023-04-29T08:51:43;2.80;;;2.70;;
4001;SDS011;2015;48.670;9.060;2023-04-29T08:54:15;2.90;;;2.70;;
4001;SDS011;2015;48.670;9.060;2023-04-29T08:56:47;3.20;;;3.00;;
4001;SDS011;2015;48.670;9.060;2023-04-29T08:59:21;3.10;;;2.90;;
4001;SDS011;2015;48.670;9.060;2023-04-29T09:01:54;3.23;;;3.03;;
4001;SDS011;2015;48.670;9.060;2023-04-29T09:05:13;2.60;;;2.50;;
4001;SDS011;2015;48.670;9.060;2023-04-29T09:07:37;2.43;;;2.33;;
4001;SDS011;2015;48.670;9.060;2023-04-29T09:10:12;2.60;;;2.40;;
4001;SDS011;2015;48.670;9.060;2023-04-29T09:12:46;3.20;;;2.90;;
4001;SDS011;2015;48.670;9.060;2023-04-29T09:15:18;2.60;;;2.50;;
4001;SDS011;2015;48.670;9.060;2023-04-29T09:17:49;2.67;;;2.50;;
4001;SDS011;2015;48.670;9.060;2023-04-29T09:22:54;2.50;;;2.37;;
4001;SDS011;2015;48.670;9.060;2023-04-29T09:25:31;3.33;;;3.17;;
4001;SDS011;2015;48.670;9.060;2023-04-29T09:28:15;2.73;;;2.63;;
4001;SDS011;2015;48.670;9.060;2023-04-29T09:30:47;2.70;;;2.60;;
4001;SDS011;2015;48.670;9.060;2023-04-29T09:33:20;5.90;;;5.50;;
4001;SDS011;2015;48.670;9.060;2023-04-29T09:35:52;2.93;;;2.63;;
4001;SDS011;2015;48.670;9.060;2023-04-29T09:38:24;2.90;;;2.70;;
4001;SDS011;2015;48.670;9.060;2023-04-29T09:40:56;3.20;;;3.00;;
4001;SDS011;2015;48.670;9.060;2023-04-29T09:43:31;3.30;;;3.00;;
4001;SDS011;2015;48.670;9.060;2023-04-29T09:46:03;2.93;;;2.73;;
4001;SDS011;2015;48.670;9.060;2023-04-29T09:48:35;3.10;;;2.90;;
4001;SDS011;2015;48.670;9.060;2023-04-29T09:51:06;3.07;;;2.87;;
4001;SDS011;2015;48.670;9.060;2023-04-29T09:53:38;3.17;;;2.93;;
4001;SDS011;2015;48.670;9.060;2023-04-29T09:56:10;2.60;;;2.50;;
4001;SDS011;2015;48.670;9.060;2023-04-29T09:58:41;2.40;;;2.30;;
4001;SDS011;2015;48.670;9.060;2023-04-29T10:01:13;3.20;;;3.00;;
4001;SDS011;2015;48.670;9.060;2023-04-29T10:03:49;3.33;;;3.13;;
4001;SDS011;2015;48.670;9.060;2023-04-29T10:06:24;3.03;;;2.83;;
4001;SDS011;2015;48.670;9.060;2023-04-29T10:08:56;2.87;;;2.63;;
4001;SDS011;2015;48.670;9.060;2023-04-29T10:11:28;2.90;;;2.70;;
4001;SDS011;2015;48.670;9.060;2023-04-29T10:14:02;3.50;;;2.70;;
4001;SDS011;2015;48.670;9.060;2023-04-29T10:16:35;3.40;;;3.17;;
4001;SDS011;2015;48.670;9.060;2023-04-29T10:19:29;2.90;;;2.80;;
4001;SDS011;2015;48.670;9.060;2023-04-29T10:22:06;2.97;;;2.87;;
4001;SDS011;2015;48.670;9.060;2023-04-29T10:24:40;4.00;;;3.10;;
4001;SDS011;2015;48.670;9.060;2023-04-29T10:27:14;2.73;;;2.63;;
4001;SDS011;2015;48.670;9.060;2023-04-29T10:29:47;3.40;;;3.00;;
4001;SDS011;2015;48.670;9.060;2023-04-29T10:32:21;2.90;;;2.70;;
4001;SDS011;2015;48.670;9.060;2023-04-29T10:34:55;2.47;;;2.37;;
4001;SDS011;2015;48.670;9.060;2023-04-29T10:37:28;3.03;;;2.83;;
4001;SDS011;2015;48.670;9.060;2023-04-29T10:40:07;3.20;;;3.00;;
4001;SDS011;2015;48.670;9.060;2023-04-29T10:43:01;3.40;;;3.23;;
4001;SDS011;2015;48.670;9.060;2023-04-29T10:45:33;3.73;;;3.53;;
4001;SDS011;2015;48.670;9.060;2023-04-29T10:48:09;3.37;;;2.97;;
4001;SDS011;2015;48.670;9.060;2023-04-29T10:53:20;2.70;;;2.50;;
4001;SDS011;2015;48.670;9.060;2023-04-29T10:55:56;2.40;;;2.30;;
4001;SDS011;2015;48.670;9.060;2023-04-29T10:58:36;3.00;;;2.90;;
4001;SDS011;2015;48.670;9.060;2023-04-29T11:01:14;4.63;;;3.63;;
4001;SDS011;2015;48.670;9.060;2023-04-29T11:03:54;3.37;;;3.17;;
4001;SDS011;2015;48.670;9.060;2023-04-29T11:09:08;2.60;;;2.40;;
4001;SDS011;2015;48.670;9.060;2023-04-29T11:11:57;2.97;;;2.67;;
4001;SDS011;2015;48.670;9.060;2023-04-29T11:14:45;4.33;;;3.10;;
4001;SDS011;2015;48.670;9.060;2023-04-29T11:17:20;3.57;;;3.37;;
4001;SDS011;2015;48.670;9.060;2023-04-29T11:19:53;4.00;;;3.80;;
4001;SDS011;2015;48.670;9.060;2023-04-29T11:22:27;3.00;;;2.80;;
4001;SDS011;2015;48.670;9.060;2023-04-29T11:25:04;3.00;;;2.70;;
4001;SDS011;2015;48.670;9.060;2023-04-29T11:27:38;3.97;;;3.67;;
4001;SDS011;2015;48.670;9.060;2023-04-29T11:30:12;3.37;;;3.17;;
4001;SDS011;2015;48.670;9.060;2023-04-29T11:32:45;3.53;;;3.22;;
4001;SDS011;2015;48.670;9.060;2023-04-29T11:35:19;4.00;;;3.73;;
4001;SDS011;2015;48.670;9.060;2023-04-29T11:37:51;4.00;;;3.80;;
4001;SDS011;2015;48.670;9.060;2023-04-29T11:40:24;4.43;;;4.13;;
4001;SDS011;2015;48.670;9.060;2023-04-29T11:42:56;3.33;;;3.13;;
4001;SDS011;2015;48.670;9.060;2023-04-29T11:45:27;3.20;;;3.00;;
4001;SDS011;2015;48.670;9.060;2023-04-29T11:47:59;5.30;;;3.23;;
4001;SDS011;2015;48.670;9.060;2023-04-29T11:50:31;3.23;;;3.03;;
4001;SDS011;2015;48.670;9.060;2023-04-29T11:53:04;4.83;;;4.50;;
4001;SDS011;2015;48.670;9.060;2023-04-29T11:55:36;4.30;;;4.10;;
4001;SDS011;2015;48.670;9.060;2023-04-29T11:58:08;3.53;;;3.33;;
4001;SDS011;2015;48.670;9.060;2023-04-29T12:00:40;3.20;;;3.00;;
4001;SDS011;2015;48.670;9.060;2023-04-29T12:03:15;3.80;;;3.60;;
4001;SDS011;2015;48.670;9.060;2023-04-29T12:05:54;4.00;;;3.80;;
4001;SDS011;2015;48.670;9.060;2023-04-29T12:08:27;6.30;;;4.43;;
4001;SDS011;2015;48.670;9.060;2023-04-29T12:10:59;4.20;;;3.80;;
4001;SDS011;2015;48.670;9.060;2023-04-29T12:13:32;3.40;;;3.20;;
4001;SDS011;2015;48.670;9.060;2023-04-29T12:16:06;4.40;;;4.10;;
4001;SDS011;2015;48.670;9.060;2023-04-29T12:18:38;3.60;;;3.40;;
4001;SDS011;2015;48.670;9.060;2023-04-29T12:21:11;4.23;;;3.97;;
4001;SDS011;2015;48.670;9.060;2023-04-29T12:23:44;3.57;;;2.80;;
4001;SDS011;2015;48.670;9.060;2023-04-29T12:26:17;3.40;;;3.20;;
4001;SDS011;2015;48.670;9.060;2023-04-29T12:28:52;3.30;;;3.00;;
4001;SDS011;2015;48.670;9.060;2023-04-29T12:31:32;2.65;;;2.45;;
4001;SDS011;2015;48.670;9.060;2023-04-29T12:34:07;3.23;;;2.90;;
4001;SDS011;2015;48.670;9.060;2023-04-29T12:36:40;3.57;;;3.37;;
4001;SDS011;2015;48.670;9.060;2023-04-29T12:39:13;3.43;;;3.23;;
4001;SDS011;2015;48.670;9.060;2023-04-29T12:41:46;3.73;;;3.53;;
4001;SDS011;2015;48.670;9.060;2023-04-29T12:44:17;3.73;;;3.53;;
4001;SDS011;2015;48.670;9.060;2023-04-29T12:46:50;3.20;;;3.00;;
4001;SDS011;2015;48.670;9.060;2023-04-29T12:49:28;3.20;;;3.00;;
4001;SDS011;2015;48.670;9.060;2023-04-29T12:52:00;4.37;;;3.93;;
4001;SDS011;2015;48.670;9.060;2023-04-29T12:54:33;3.60;;;3.40;;
4001;SDS011;2015;48.670;9.060;2023-04-29T12:57:06;3.40;;;3.20;;
4001;SDS011;2015;48.670;9.060;2023-04-29T12:59:40;3.57;;;3.37;;
4001;SDS011;2015;48.670;9.060;2023-04-29T13:02:12;4.03;;;3.73;;
4001;SDS011;2015;48.670;9.060;2023-04-29T13:04:44;9.50;;;4.10;;
4001;SDS011;2015;48.670;9.060;2023-04-29T13:07:16;8.10;;;4.80;;
4001;SDS011;2015;48.670;9.060;2023-04-29T13:09:48;4.70;;;4.27;;
4001;SDS011;2015;48.670;9.060;2023-04-29T13:12:20;4.40;;;4.20;;
4001;SDS011;2015;48.670;9.060;2023-04-29T13:14:52;4.70;;;4.30;;
4001;SDS011;2015;48.670;9.060;2023-04-29T13:17:28;5.50;;;5.00;;
4001;SDS011;2015;48.670;9.060;2023-04-29T13:20:00;4.57;;;4.17;;
4001;SDS011;2015;48.670;9.060;2023-04-29T13:22:31;5.00;;;4.70;;
4001;SDS011;2015;48.670;9.060;2023-04-29T13:25:04;4.67;;;4.40;;
4001;SDS011;2015;48.670;9.060;2023-04-29T13:27:36;4.30;;;4.10;;
4001;SDS011;2015;48.670;9.060;2023-04-29T13:30:08;4.05;;;3.75;;
4001;SDS011;2015;48.670;9.060;2023-04-29T13:32:41;5.10;;;4.80;;
4001;SDS011;2015;48.670;9.060;2023-04-29T13:35:21;4.57;;;4.37;;
4001;SDS011;2015;48.670;9.060;2023-04-29T13:37:53;4.83;;;4.53;;
4001;SDS011;2015;48.670;9.060;2023-04-29T13:44:18;5.40;;;4.90;;
4001;SDS011;2015;48.670;9.060;2023-04-29T13:50:58;4.53;;;4.33;;
4001;SDS011;2015;48.670;9.060;2023-04-29T13:53:32;5.17;;;4.60;;
4001;SDS011;2015;48.670;9.060;2023-04-29T13:56:24;6.60;;;6.00;;
4001;SDS011;2015;48.670;9.060;2023-04-29T13:58:59;5.83;;;5.33;;
4001;SDS011;2015;48.670;9.060;2023-04-29T14:01:34;6.37;;;5.97;;
4001;SDS011;2015;48.670;9.060;2023-04-29T14:04:09;6.73;;;6.23;;
4001;SDS011;2015;48.670;9.060;2023-04-29T14:06:44;8.70;;;5.73;;
4001;SDS011;2015;48.670;9.060;2023-04-29T14:09:16;5.63;;;5.33;;
4001;SDS011;2015;48.670;9.060;2023-04-29T14:11:49;7.67;;;6.73;;
4001;SDS011;2015;48.670;9.060;2023-04-29T14:14:21;6.80;;;6.20;;
4001;SDS011;2015;48.670;9.060;2023-04-29T14:16:52;8.03;;;7.20;;
4001;SDS011;2015;48.670;9.060;2023-04-29T14:19:24;7.00;;;6.30;;
4001;SDS011;2015;48.670;9.060;2023-04-29T14:21:56;8.57;;;7.77;;
4001;SDS011;2015;48.670;9.060;2023-04-29T14:24:28;7.67;;;7.07;;
4001;SDS011;2015;48.670;9.060;2023-04-29T14:27:00;8.90;;;8.10;;
4001;SDS011;2015;48.670;9.060;2023-04-29T14:29:32;7.45;;;6.90;;
4001;SDS011;2015;48.670;9.060;2023-04-29T14:32:04;8.73;;;7.97;;
4001;SDS011;2015;48.670;9.060;2023-04-29T14:34:37;10.27;;;9.37;;
4001;SDS011;2015;48.670;9.060;2023-04-29T14:37:09;10.97;;;9.87;;
4001;SDS011;2015;48.670;9.060;2023-04-29T14:39:41;12.90;;;9.33;;
4001;SDS011;2015;48.670;9.060;2023-04-29T14:42:13;9.00;;;8.10;;
4001;SDS011;2015;48.670;9.060;2023-04-29T14:44:45;10.00;;;9.07;;
4001;SDS011;2015;48.670;9.060;2023-04-29T14:47:17;12.13;;;10.77;;
4001;SDS011;2015;48.670;9.060;2023-04-29T14:49:48;11.07;;;9.90;;
4001;SDS011;2015;48.670;9.060;2023-04-29T14:52:20;10.47;;;9.47;;
4001;SDS011;2015;48.670;9.060;2023-04-29T14:54:52;9.77;;;8.70;;
4001;SDS011;2015;48.670;9.060;2023-04-29T14:57:24;11.57;;;8.23;;
4001;SDS011;2015;48.670;9.060;2023-04-29T14:59:56;10.23;;;9.30;;
4001;SDS011;2015;48.670;9.060;2023-04-29T15:02:28;11.50;;;9.90;;
4001;SDS011;2015;48.670;9.060;2023-04-29T15:05:00;14.17;;;9.47;;
4001;SDS011;2015;48.670;9.060;2023-04-29T15:07:34;11.17;;;10.07;;
4001;SDS011;2015;48.670;9.060;2023-04-29T15:10:06;11.60;;;10.40;;
4001;SDS011;2015;48.670;9.060;2023-04-29T15:12:39;11.37;;;10.37;;
4001;SDS011;2015;48.670;9.060;2023-04-29T15:15:11;10.03;;;8.73;;
4001;SDS011;2015;48.670;9.060;2023-04-29T15:17:43;9.83;;;9.00;;
4001;SDS011;2015;48.670;9.060;2023-04-29T15:20:15;12.30;;;11.10;;
4001;SDS011;2015;48.670;9.060;2023-04-29T15:22:47;15.40;;;11.47;;
4001;SDS011;2015;48.670;9.060;2023-04-29T15:25:18;11.63;;;10.07;;
4001;SDS011;2015;48.670;9.060;2023-04-29T15:27:51;12.47;;;11.27;;
4001;SDS011;2015;48.670;9.060;2023-04-29T15:30:24;18.23;;;11.30;;
4001;SDS011;2015;48.670;9.060;2023-04-29T15:32:57;11.60;;;9.60;;
4001;SDS011;2015;48.670;9.060;2023-04-29T15:35:29;9.50;;;8.60;;
4001;SDS011;2015;48.670;9.060;2023-04-29T15:38:01;11.73;;;10.60;;
4001;SDS011;2015;48.670;9.060;2023-04-29T15:40:32;10.50;;;9.50;;
4001;SDS011;2015;48.670;9.060;2023-04-29T15:43:04;12.33;;;10.97;;
4001;SDS011;2015;48.670;9.060;2023-04-29T15:45:37;15.20;;;10.73;;
4001;SDS011;2015;48.670;9.060;2023-04-29T15:48:09;14.10;;;12.60;;
4001;SDS011;2015;48.670;9.060;2023-04-29T15:50:41;19.03;;;12.10;;
4001;SDS011;2015;48.670;9.060;2023-04-29T15:53:12;14.17;;;12.17;;
4001;SDS011;2015;48.670;9.060;2023-04-29T15:55:44;17.88;;;14.18;;
4001;SDS011;2015;48.670;9.060;2023-04-29T15:58:16;13.60;;;12.17;;
4001;SDS011;2015;48.670;9.060;2023-04-29T16:00:48;15.43;;;11.00;;
4001;SDS011;2015;48.670;9.060;2023-04-29T16:03:21;17.90;;;14.20;;
4001;SDS011;2015;48.670;9.060;2023-04-29T16:05:53;13.50;;;12.10;;
4001;SDS011;2015;48.670;9.060;2023-04-29T16:08:25;20.03;;;17.93;;
4001;SDS011;2015;48.670;9.060;2023-04-29T16:10:57;15.83;;;13.50;;
4001;SDS011;2015;48.670;9.060;2023-04-29T16:13:29;18.97;;;14.30;;
4001;SDS011;2015;48.670;9.060;2023-04-29T16:16:00;14.23;;;11.93;;
4001;SDS011;2015;48.670;9.060;2023-04-29T16:18:32;14.40;;;12.87;;
4001;SDS011;2015;48.670;9.060;2023-04-29T16:21:04;14.73;;;13.23;;
4001;SDS011;2015;48.670;9.060;2023-04-29T16:23:36;12.40;;;11.13;;
4001;SDS011;2015;48.670;9.060;2023-04-29T16:26:08;11.60;;;10.50;;
4001;SDS011;2015;48.670;9.060;2023-04-29T16:28:40;14.20;;;12.80;;